createdAt,value
2018-11-10T00:01:30.497Z,7.60
2018-11-10T00:03:57.980Z,7.60
2018-11-10T00:06:25.583Z,7.60
2018-11-10T00:08:53.056Z,7.60
2018-11-10T00:11:20.556Z,7.60
2018-11-10T00:13:48.036Z,7.60
2018-11-10T00:16:15.536Z,7.60
2018-11-10T00:18:43.008Z,7.60
2018-11-10T00:21:10.488Z,7.60
2018-11-10T00:23:37.968Z,7.60
2018-11-10T00:26:05.468Z,7.60
2018-11-10T00:28:40.067Z,7.60
2018-11-10T00:31:07.560Z,7.60
2018-11-10T00:33:35.023Z,7.60
2018-11-10T00:36:02.509Z,7.60
2018-11-10T00:38:30.004Z,7.60
2018-11-10T00:40:57.485Z,7.60
2018-11-10T00:43:24.960Z,7.60
2018-11-10T00:45:52.480Z,7.60
2018-11-10T00:48:19.968Z,7.50
2018-11-10T00:50:47.483Z,7.50
2018-11-10T00:53:14.984Z,7.50
2018-11-10T00:55:42.481Z,7.50
2018-11-10T00:58:09.977Z,7.50
2018-11-10T01:00:37.488Z,7.50
2018-11-10T01:03:05.264Z,7.50
2018-11-10T01:05:32.813Z,7.50
2018-11-10T01:08:00.256Z,7.50
2018-11-10T01:10:27.751Z,7.50
2018-11-10T01:12:55.242Z,7.40
2018-11-10T01:15:22.741Z,7.40
2018-11-10T01:17:50.244Z,7.40
2018-11-10T01:20:17.745Z,7.40
2018-11-10T01:22:45.253Z,7.50
2018-11-10T01:25:12.735Z,7.50
2018-11-10T01:27:40.257Z,7.40
2018-11-10T01:30:12.015Z,7.40
2018-11-10T01:32:39.601Z,7.40
2018-11-10T01:35:07.108Z,7.40
2018-11-10T01:37:34.824Z,7.40
2018-11-10T01:40:02.316Z,7.40
2018-11-10T01:42:29.825Z,7.30
2018-11-10T01:44:57.288Z,7.40
2018-11-10T01:47:24.772Z,7.30
2018-11-10T01:49:52.245Z,7.30
2018-11-10T01:52:19.716Z,7.40
2018-11-10T01:54:47.198Z,7.30
2018-11-10T01:57:14.680Z,7.40
2018-11-10T01:59:42.144Z,7.40
2018-11-10T02:02:09.624Z,7.50
2018-11-10T02:04:37.093Z,7.50
2018-11-10T02:07:04.651Z,7.50
2018-11-10T02:09:32.133Z,7.60
2018-11-10T02:11:59.619Z,7.60
2018-11-10T02:14:27.089Z,7.70
2018-11-10T02:16:54.563Z,7.70
2018-11-10T02:19:22.162Z,7.80
2018-11-10T02:21:49.661Z,7.80
2018-11-10T02:24:17.120Z,7.80
2018-11-10T02:26:44.615Z,7.80
2018-11-10T02:29:12.101Z,7.80
2018-11-10T02:31:39.592Z,7.80
2018-11-10T02:34:07.056Z,7.80
2018-11-10T02:36:34.600Z,7.90
2018-11-10T02:39:02.103Z,7.90
2018-11-10T02:41:29.587Z,7.90
2018-11-10T02:43:57.057Z,7.90
2018-11-10T02:46:24.560Z,7.90
2018-11-10T02:48:52.036Z,7.90
2018-11-10T02:51:19.528Z,7.90
2018-11-10T02:53:47.009Z,7.90
2018-11-10T02:56:14.476Z,7.90
2018-11-10T02:58:42.211Z,7.90
2018-11-10T03:01:09.692Z,7.80
2018-11-10T03:03:37.168Z,7.80
2018-11-10T03:06:04.710Z,7.80
2018-11-10T03:08:32.184Z,7.90
2018-11-10T03:10:59.656Z,7.90
2018-11-10T03:13:27.153Z,7.90
2018-11-10T03:15:54.628Z,7.80
2018-11-10T03:18:22.096Z,7.80
2018-11-10T03:20:49.573Z,7.80
2018-11-10T03:23:17.096Z,7.80
2018-11-10T03:25:44.563Z,7.80
2018-11-10T03:28:12.045Z,7.70
2018-11-10T03:30:39.520Z,7.70
2018-11-10T03:33:06.988Z,7.60
2018-11-10T03:35:34.470Z,7.50
2018-11-10T03:38:01.949Z,7.50
2018-11-10T03:40:29.448Z,7.50
2018-11-10T03:42:56.933Z,7.50
2018-11-10T03:45:24.436Z,7.50
2018-11-10T03:47:51.932Z,7.60
2018-11-10T03:50:19.433Z,7.60
2018-11-10T03:52:46.940Z,7.60
2018-11-10T03:55:14.439Z,7.50
2018-11-10T03:57:41.952Z,7.50
2018-11-10T04:00:12.984Z,7.50
2018-11-10T04:02:41.799Z,7.50
2018-11-10T04:05:09.948Z,7.40
2018-11-10T04:07:37.492Z,7.40
2018-11-10T04:10:05.476Z,7.50
2018-11-10T04:12:33.001Z,7.50
2018-11-10T04:15:00.491Z,7.60
2018-11-10T04:17:28.004Z,7.70
2018-11-10T04:19:55.492Z,7.70
2018-11-10T04:22:38.212Z,7.80
2018-11-10T04:25:10.083Z,7.90
2018-11-10T04:27:37.584Z,8.10
2018-11-10T04:30:07.063Z,8.10
2018-11-10T04:32:35.336Z,8.20
2018-11-10T04:35:02.917Z,8.20
2018-11-10T04:37:30.412Z,8.20
2018-11-10T04:39:57.896Z,8.20
2018-11-10T04:42:25.396Z,8.10
2018-11-10T04:44:52.906Z,8.00
2018-11-10T04:47:20.409Z,8.00
2018-11-10T04:49:47.922Z,7.90
2018-11-10T04:52:15.404Z,7.80
2018-11-10T04:54:42.907Z,7.80
2018-11-10T04:57:10.389Z,7.70
2018-11-10T04:59:37.881Z,7.70
2018-11-10T05:02:05.385Z,7.60
2018-11-10T05:04:32.888Z,7.60
2018-11-10T05:07:00.380Z,7.60
2018-11-10T05:09:27.868Z,7.70
2018-11-10T05:11:55.671Z,7.70
2018-11-10T05:14:23.164Z,7.80
2018-11-10T05:16:50.658Z,7.80
2018-11-10T05:19:25.289Z,7.80
2018-11-10T05:21:52.776Z,7.90
2018-11-10T05:24:20.299Z,7.90
2018-11-10T05:26:47.785Z,8.00
2018-11-10T05:29:15.289Z,8.00
2018-11-10T05:31:42.785Z,8.10
2018-11-10T05:34:10.289Z,8.10
2018-11-10T05:36:37.788Z,8.20
2018-11-10T05:39:06.808Z,8.20
2018-11-10T05:41:34.312Z,8.30
2018-11-10T05:44:01.825Z,8.30
2018-11-10T05:46:29.324Z,8.30
2018-11-10T05:48:56.829Z,8.30
2018-11-10T05:51:24.313Z,8.20
2018-11-10T05:53:51.807Z,8.20
2018-11-10T05:56:19.293Z,8.20
2018-11-10T05:58:46.799Z,8.20
2018-11-10T09:22:19.060Z,11.90
2018-11-10T09:24:46.581Z,11.90
2018-11-10T09:27:14.057Z,12.20
2018-11-10T09:29:41.595Z,12.40
2018-11-10T09:32:09.104Z,12.60
2018-11-10T09:34:36.613Z,12.80
2018-11-10T09:37:04.296Z,12.90
2018-11-10T09:39:31.804Z,13.10
2018-11-10T09:41:59.394Z,13.20
2018-11-10T09:44:26.861Z,13.30
2018-11-10T09:46:54.399Z,13.40
2018-11-10T09:49:21.912Z,13.40
2018-11-10T09:51:49.448Z,13.50
2018-11-10T09:54:17.000Z,13.60
2018-11-10T09:56:44.535Z,13.60
2018-11-10T09:59:12.085Z,13.70
2018-11-10T10:01:39.755Z,13.80
2018-11-10T10:04:07.544Z,13.90
2018-11-10T10:06:35.039Z,14.00
2018-11-10T10:09:04.052Z,14.00
2018-11-10T10:11:31.556Z,14.10
2018-11-10T10:13:59.057Z,14.20
2018-11-10T10:16:33.774Z,14.30
2018-11-10T10:19:01.276Z,14.40
2018-11-10T10:21:28.793Z,14.40
2018-11-10T10:23:56.300Z,14.40
2018-11-10T10:26:23.795Z,14.50
2018-11-10T10:28:51.372Z,14.60
2018-11-10T10:31:18.836Z,14.70
2018-11-10T10:33:46.349Z,14.80
2018-11-10T10:36:13.863Z,14.90
2018-11-10T10:38:41.367Z,15.00
2018-11-10T10:41:08.875Z,15.00
2018-11-10T10:43:36.380Z,15.10
2018-11-10T10:46:03.888Z,15.30
2018-11-10T10:48:31.423Z,15.40
2018-11-10T10:50:58.866Z,15.50
2018-11-10T10:53:26.348Z,15.60
2018-11-10T10:55:53.854Z,15.60
2018-11-10T10:58:21.336Z,15.60
2018-11-10T11:00:54.663Z,15.60
2018-11-10T11:06:35.191Z,15.70
2018-11-10T11:09:30.639Z,15.70
2018-11-10T11:11:58.103Z,15.80
2018-11-10T11:14:31.485Z,15.80
2018-11-10T11:17:17.868Z,15.90
2018-11-10T11:20:03.804Z,16.00
2018-11-10T11:22:31.293Z,16.20
2018-11-10T11:25:13.841Z,16.30
2018-11-10T11:27:41.316Z,16.30
2018-11-10T11:30:08.800Z,16.30
2018-11-10T11:32:51.054Z,16.20
2018-11-10T11:35:24.456Z,16.10
2018-11-10T11:37:51.851Z,16.00
2018-11-10T11:40:19.336Z,16.00
2018-11-10T11:42:46.821Z,16.00
2018-11-10T11:45:14.341Z,16.00
2018-11-10T11:47:42.368Z,16.00
2018-11-10T11:50:11.352Z,16.00
2018-11-10T11:52:39.533Z,16.10
2018-11-10T11:55:07.401Z,16.20
2018-11-10T11:57:35.037Z,16.20
2018-11-10T12:00:02.648Z,16.30
2018-11-10T12:02:30.151Z,16.20
2018-11-10T12:04:57.643Z,16.20
2018-11-10T12:07:25.153Z,16.20
2018-11-10T12:09:52.664Z,16.30
2018-11-10T12:12:20.172Z,16.20
2018-11-10T12:14:47.676Z,16.20
2018-11-10T12:17:15.196Z,16.30
2018-11-10T12:19:42.690Z,16.30
2018-11-10T12:22:10.290Z,16.30
2018-11-10T12:24:37.709Z,16.20
2018-11-10T12:27:05.377Z,16.20
2018-11-10T12:29:32.852Z,16.20
2018-11-10T12:32:00.522Z,16.10
2018-11-10T12:34:27.908Z,16.20
2018-11-10T12:36:55.472Z,16.20
2018-11-10T12:39:22.992Z,16.20
2018-11-10T12:41:50.525Z,16.20
2018-11-10T12:44:18.060Z,16.20
2018-11-10T12:46:45.585Z,16.20
2018-11-10T12:49:13.123Z,16.20
2018-11-10T12:51:40.628Z,16.20
2018-11-10T12:54:08.257Z,16.20
2018-11-10T12:56:35.772Z,16.10
2018-11-10T12:59:03.437Z,16.00
2018-11-10T13:01:30.968Z,16.00
2018-11-10T13:03:58.473Z,15.90
2018-11-10T13:06:25.996Z,15.80
2018-11-10T13:08:53.544Z,15.80
2018-11-10T13:11:21.112Z,15.80
2018-11-10T13:13:48.619Z,15.80
2018-11-10T13:16:16.176Z,15.70
2018-11-10T13:18:43.793Z,15.80
2018-11-10T13:21:11.304Z,15.70
2018-11-10T13:23:38.832Z,15.70
2018-11-10T13:26:09.954Z,15.60
2018-11-10T13:28:37.474Z,15.50
2018-11-10T13:31:05.205Z,15.40
2018-11-10T13:33:32.616Z,15.30
2018-11-10T13:36:00.159Z,15.30
2018-11-10T13:38:27.705Z,15.30
2018-11-10T13:40:55.248Z,15.30
2018-11-10T13:43:22.858Z,15.40
2018-11-10T13:45:50.380Z,15.40
2018-11-10T13:48:17.881Z,15.50
2018-11-10T13:50:45.633Z,15.50
2018-11-10T13:53:12.976Z,15.50
2018-11-10T13:55:40.508Z,15.40
2018-11-10T13:58:08.051Z,15.30
2018-11-10T14:00:35.560Z,15.30
2018-11-10T14:03:03.105Z,15.20
2018-11-10T14:05:30.665Z,15.20
2018-11-10T14:07:58.228Z,15.10
2018-11-10T14:10:31.544Z,15.00
2018-11-10T14:12:59.071Z,14.90
2018-11-10T14:15:26.577Z,14.80
2018-11-10T14:17:54.105Z,14.70
2018-11-10T14:20:21.670Z,14.60
2018-11-10T14:22:49.152Z,14.60
2018-11-10T14:25:17.154Z,14.50
2018-11-10T14:27:44.936Z,14.50
2018-11-10T14:30:13.911Z,14.50
2018-11-10T14:32:42.086Z,14.40
2018-11-10T14:35:10.253Z,14.30
2018-11-10T14:37:37.792Z,14.10
2018-11-10T14:40:07.847Z,14.00
2018-11-10T14:42:35.393Z,13.90
2018-11-10T14:45:02.973Z,13.70
2018-11-10T14:47:30.456Z,13.60
2018-11-10T14:49:57.960Z,13.40
2018-11-10T14:52:25.505Z,13.30
2018-11-10T14:54:52.964Z,13.20
2018-11-10T14:57:20.468Z,13.00
2018-11-10T14:59:47.969Z,12.90
2018-11-10T15:02:15.476Z,12.80
2018-11-10T15:04:42.985Z,12.60
2018-11-10T15:07:10.496Z,12.50
2018-11-10T15:09:37.981Z,12.30
2018-11-10T15:12:05.494Z,12.20
2018-11-10T15:14:32.952Z,12.10
2018-11-10T15:17:00.424Z,11.90
2018-11-10T15:19:27.907Z,11.80
2018-11-10T15:21:55.409Z,11.70
2018-11-10T15:24:22.899Z,11.50
2018-11-10T15:26:50.540Z,11.40
2018-11-10T15:29:18.029Z,11.30
2018-11-10T15:31:45.494Z,11.20
2018-11-10T15:34:13.345Z,11.00
2018-11-10T15:36:40.960Z,10.90
2018-11-10T15:39:08.761Z,10.80
2018-11-10T15:41:36.242Z,10.80
2018-11-10T15:44:03.796Z,10.70
2018-11-10T15:46:31.276Z,10.60
2018-11-10T15:48:58.757Z,10.50
2018-11-10T15:51:26.233Z,10.40
2018-11-10T15:53:53.711Z,10.40
2018-11-10T15:56:21.189Z,10.30
2018-11-10T15:58:48.676Z,10.30
2018-11-10T16:01:16.149Z,10.30
2018-11-10T16:03:43.854Z,10.20
2018-11-10T16:06:11.329Z,10.10
2018-11-10T16:08:38.812Z,10.10
2018-11-10T16:11:06.280Z,10.10
2018-11-10T16:13:33.752Z,10.00
2018-11-10T16:16:01.234Z,10.00
2018-11-10T16:18:28.728Z,10.00
2018-11-10T16:20:56.243Z,10.00
2018-11-10T16:23:23.680Z,9.90
2018-11-10T16:25:51.269Z,9.90
2018-11-10T16:28:18.780Z,9.90
2018-11-10T16:30:46.244Z,9.90
2018-11-10T16:33:13.723Z,9.90
2018-11-10T16:35:41.201Z,9.90
2018-11-10T16:38:08.680Z,9.90
2018-11-10T16:40:36.144Z,10.00
2018-11-10T16:43:03.998Z,9.90
2018-11-10T16:45:31.495Z,9.90
2018-11-10T16:47:58.982Z,9.80
2018-11-10T16:50:33.317Z,9.80
2018-11-10T16:53:11.981Z,9.80
2018-11-10T16:55:39.478Z,9.80
2018-11-10T16:58:12.720Z,9.70
2018-11-10T17:00:40.224Z,9.70
2018-11-10T17:03:22.260Z,9.70
2018-11-10T17:05:49.749Z,9.70
2018-11-10T17:08:17.271Z,9.70
2018-11-10T17:10:44.752Z,9.70
2018-11-10T17:13:12.257Z,9.60
2018-11-10T17:15:39.808Z,9.60
2018-11-10T17:18:07.283Z,9.60
2018-11-10T17:20:34.773Z,9.60
2018-11-10T17:23:02.305Z,9.50
2018-11-10T17:25:29.803Z,9.50
2018-11-10T17:27:57.348Z,9.50
2018-11-10T17:30:24.970Z,9.50
2018-11-10T17:32:52.326Z,9.40
2018-11-10T17:35:19.832Z,9.40
2018-11-10T17:37:47.376Z,9.40
2018-11-10T17:40:25.411Z,9.30
2018-11-10T17:42:52.790Z,9.30
2018-11-10T17:45:20.300Z,9.30
2018-11-10T17:47:47.793Z,9.30
2018-11-10T17:50:16.336Z,9.20
2018-11-10T17:52:43.890Z,9.20
2018-11-10T17:55:12.688Z,9.20
2018-11-10T17:57:40.915Z,9.20
2018-11-10T18:00:08.400Z,9.20
2018-11-10T18:02:35.896Z,9.20
2018-11-10T18:05:03.572Z,9.10
2018-11-10T18:07:31.492Z,9.10
2018-11-10T18:09:58.980Z,9.10
2018-11-10T18:12:26.484Z,9.00
2018-11-10T18:14:54.389Z,9.00
2018-11-10T18:17:21.919Z,9.00
2018-11-10T18:19:49.560Z,9.00
2018-11-10T18:22:17.045Z,9.00
2018-11-10T18:24:44.545Z,9.00
2018-11-10T18:27:12.042Z,9.00
2018-11-10T18:29:39.543Z,9.00
2018-11-10T18:32:07.092Z,8.90
2018-11-10T18:34:34.608Z,9.00
2018-11-10T18:37:02.112Z,8.90
2018-11-10T18:39:29.705Z,8.90
2018-11-10T18:41:57.124Z,8.90
2018-11-10T18:44:24.689Z,8.80
2018-11-10T18:46:52.249Z,8.80
2018-11-10T18:49:19.660Z,8.80
2018-11-10T18:51:47.187Z,8.80
2018-11-10T18:54:14.704Z,8.70
2018-11-10T18:56:42.180Z,8.80
2018-11-10T18:59:09.683Z,8.80
2018-11-10T19:01:37.223Z,8.90
2018-11-10T19:04:05.064Z,8.90
2018-11-10T19:06:32.554Z,8.90
2018-11-10T19:09:00.054Z,8.80
2018-11-10T19:11:27.529Z,8.80
2018-11-10T19:13:55.000Z,8.70
2018-11-10T19:16:22.479Z,8.70
2018-11-10T19:18:50.215Z,8.70
2018-11-10T19:21:17.684Z,8.70
2018-11-10T19:23:45.173Z,8.70
2018-11-10T19:26:12.684Z,8.70
2018-11-10T19:28:40.156Z,8.70
2018-11-10T19:31:07.639Z,8.60
2018-11-10T19:33:35.136Z,8.60
2018-11-10T19:36:02.633Z,8.50
2018-11-10T19:38:30.096Z,8.40
2018-11-10T19:40:57.576Z,8.30
2018-11-10T19:43:25.057Z,8.30
2018-11-10T19:45:52.551Z,8.20
2018-11-10T19:48:20.029Z,8.20
2018-11-10T19:50:47.614Z,8.20
2018-11-10T19:53:14.990Z,8.20
2018-11-10T19:55:42.489Z,8.20
2018-11-10T19:58:09.967Z,8.20
2018-11-10T20:00:37.466Z,8.20
2018-11-10T20:03:05.592Z,8.10
2018-11-10T20:05:33.072Z,8.00
2018-11-10T20:08:00.544Z,8.00
2018-11-10T20:10:28.016Z,8.00
2018-11-10T20:12:55.519Z,8.00
2018-11-10T20:15:22.977Z,8.00
2018-11-10T20:17:50.451Z,8.00
2018-11-10T20:20:18.544Z,8.00
2018-11-10T20:22:46.029Z,8.00
2018-11-10T20:25:15.052Z,8.10
2018-11-10T20:27:42.525Z,8.10
2018-11-10T20:30:13.021Z,8.10
2018-11-10T20:32:40.517Z,8.10
2018-11-10T20:35:09.588Z,8.10
2018-11-10T20:37:37.360Z,8.10
2018-11-10T20:40:06.964Z,8.10
2018-11-10T20:42:34.436Z,8.10
2018-11-10T20:45:02.104Z,8.10
2018-11-10T20:47:29.503Z,8.10
2018-11-10T20:49:57.016Z,8.10
2018-11-10T20:52:24.504Z,8.10
2018-11-10T20:54:52.004Z,8.10
2018-11-10T20:57:19.504Z,8.10
2018-11-10T20:59:47.005Z,8.10
2018-11-10T21:02:14.500Z,8.10
2018-11-10T21:04:41.991Z,8.10
2018-11-10T21:07:09.500Z,8.10
2018-11-10T21:09:36.979Z,8.20
2018-11-10T21:12:04.481Z,8.20
2018-11-10T21:14:32.017Z,8.30
2018-11-10T21:16:59.519Z,8.30
2018-11-10T21:19:27.016Z,8.30
2018-11-10T21:21:54.524Z,8.30
2018-11-10T21:24:22.012Z,8.20
2018-11-10T21:26:49.504Z,8.20
2018-11-10T21:29:17.000Z,8.20
2018-11-10T21:31:44.504Z,8.10
2018-11-10T21:34:12.107Z,8.00
2018-11-10T21:36:39.555Z,7.90
2018-11-10T21:39:08.804Z,7.80
2018-11-10T21:41:36.292Z,7.70
2018-11-10T21:44:03.807Z,7.60
2018-11-10T21:46:31.303Z,7.60
2018-11-10T21:48:58.814Z,7.50
2018-11-10T21:51:26.319Z,7.50
2018-11-10T21:53:53.804Z,7.50
2018-11-10T21:59:27.891Z,7.50
2018-11-10T22:01:55.392Z,7.40
2018-11-10T22:04:22.888Z,7.30
2018-11-10T22:06:50.495Z,7.30
2018-11-10T22:09:18.216Z,7.30
2018-11-10T22:11:45.548Z,7.20
2018-11-10T22:14:30.852Z,7.20
2018-11-10T22:17:22.573Z,7.20
2018-11-10T22:19:50.076Z,7.20
2018-11-10T22:22:17.642Z,7.10
2018-11-10T22:24:45.097Z,7.10
2018-11-10T22:27:16.756Z,7.00
2018-11-10T22:30:03.505Z,7.00
2018-11-10T22:32:31.300Z,7.00
2018-11-10T22:35:12.260Z,7.00
2018-11-10T22:37:39.832Z,7.00
2018-11-10T22:40:09.647Z,7.10
2018-11-10T22:42:48.687Z,7.10
2018-11-10T22:45:17.460Z,7.10
2018-11-10T22:47:44.983Z,7.10
2018-11-10T22:50:20.261Z,7.00
2018-11-10T22:52:47.750Z,7.00
2018-11-10T22:55:15.237Z,7.00
2018-11-10T22:57:42.732Z,6.90
2018-11-10T23:00:28.100Z,6.90
2018-11-10T23:03:00.335Z,7.00
2018-11-10T23:05:42.469Z,7.00
2018-11-10T23:08:09.952Z,7.00
2018-11-10T23:10:37.425Z,7.00
2018-11-10T23:13:06.917Z,6.90
2018-11-10T23:15:34.379Z,6.90
2018-11-10T23:18:01.860Z,6.80
2018-11-10T23:20:29.340Z,6.80
2018-11-10T23:22:56.899Z,6.70
2018-11-10T23:27:58.544Z,6.70
2018-11-10T23:30:26.027Z,6.60
2018-11-10T23:32:53.508Z,6.70
2018-11-10T23:35:20.996Z,6.70
2018-11-10T23:37:48.468Z,6.80
2018-11-10T23:40:16.509Z,6.80
2018-11-10T23:42:44.099Z,6.90
2018-11-10T23:45:12.356Z,7.00
2018-11-10T23:47:39.863Z,7.00
2018-11-10T23:50:10.024Z,7.10
2018-11-10T23:52:37.804Z,7.10
2018-11-10T23:55:06.104Z,7.20
2018-11-10T23:57:33.615Z,7.20
